sensor_id;sensor_type;location;lat;lon;timestamp;P1;durP1;ratioP1;P2;durP2;ratioP2
60896;SDS011;46749;32.932;-117.130;2023-02-22T00:00:43;3.75;;;0.70;;
60896;SDS011;46749;32.932;-117.130;2023-02-22T00:03:24;1.42;;;0.73;;
60896;SDS011;46749;32.932;-117.130;2023-02-22T00:05:56;3.58;;;0.90;;
60896;SDS011;46749;32.932;-117.130;2023-02-22T00:08:25;4.03;;;0.90;;
60896;SDS011;46749;32.932;-117.130;2023-02-22T00:10:57;3.17;;;0.90;;
60896;SDS011;46749;32.932;-117.130;2023-02-22T00:13:25;2.47;;;0.80;;
60896;SDS011;46749;32.932;-117.130;2023-02-22T00:15:55;3.90;;;0.90;;
60896;SDS011;46749;32.932;-117.130;2023-02-22T00:18:25;2.55;;;0.73;;
60896;SDS011;46749;32.932;-117.130;2023-02-22T00:20:55;4.10;;;0.80;;
60896;SDS011;46749;32.932;-117.130;2023-02-22T00:23:25;3.60;;;0.75;;
60896;SDS011;46749;32.932;-117.130;2023-02-22T00:25:54;3.30;;;0.70;;
60896;SDS011;46749;32.932;-117.130;2023-02-22T00:28:22;3.60;;;1.00;;
60896;SDS011;46749;32.932;-117.130;2023-02-22T00:30:48;2.88;;;1.00;;
60896;SDS011;46749;32.932;-117.130;2023-02-22T00:33:15;4.30;;;0.80;;
60896;SDS011;46749;32.932;-117.130;2023-02-22T00:35:43;3.15;;;0.68;;
60896;SDS011;46749;32.932;-117.130;2023-02-22T00:38:10;3.47;;;0.80;;
60896;SDS011;46749;32.932;-117.130;2023-02-22T00:40:38;2.92;;;0.85;;
60896;SDS011;46749;32.932;-117.130;2023-02-22T00:43:05;3.20;;;0.90;;
60896;SDS011;46749;32.932;-117.130;2023-02-22T00:45:33;4.65;;;1.10;;
60896;SDS011;46749;32.932;-117.130;2023-02-22T00:48:01;3.03;;;1.08;;
60896;SDS011;46749;32.932;-117.130;2023-02-22T00:50:29;7.07;;;1.05;;
60896;SDS011;46749;32.932;-117.130;2023-02-22T00:52:57;6.13;;;0.93;;
60896;SDS011;46749;32.932;-117.130;2023-02-22T00:55:26;5.00;;;1.00;;
60896;SDS011;46749;32.932;-117.130;2023-02-22T00:57:54;4.30;;;0.88;;
60896;SDS011;46749;32.932;-117.130;2023-02-22T01:00:22;5.90;;;1.08;;
60896;SDS011;46749;32.932;-117.130;2023-02-22T01:02:53;6.18;;;0.80;;
60896;SDS011;46749;32.932;-117.130;2023-02-22T01:05:22;6.22;;;1.10;;
60896;SDS011;46749;32.932;-117.130;2023-02-22T01:07:51;4.18;;;1.02;;
60896;SDS011;46749;32.932;-117.130;2023-02-22T01:10:21;4.10;;;1.02;;
60896;SDS011;46749;32.932;-117.130;2023-02-22T01:12:49;4.43;;;1.05;;
60896;SDS011;46749;32.932;-117.130;2023-02-22T01:15:18;4.80;;;1.10;;
60896;SDS011;46749;32.932;-117.130;2023-02-22T01:17:49;2.05;;;0.95;;
60896;SDS011;46749;32.932;-117.130;2023-02-22T01:20:18;5.05;;;1.10;;
60896;SDS011;46749;32.932;-117.130;2023-02-22T01:22:47;3.80;;;1.10;;
60896;SDS011;46749;32.932;-117.130;2023-02-22T01:25:16;4.82;;;1.40;;
60896;SDS011;46749;32.932;-117.130;2023-02-22T01:27:45;5.32;;;1.00;;
60896;SDS011;46749;32.932;-117.130;2023-02-22T01:30:13;3.72;;;1.20;;
60896;SDS011;46749;32.932;-117.130;2023-02-22T01:32:40;4.63;;;1.20;;
60896;SDS011;46749;32.932;-117.130;2023-02-22T01:35:09;6.28;;;1.50;;
60896;SDS011;46749;32.932;-117.130;2023-02-22T01:37:38;3.88;;;0.90;;
60896;SDS011;46749;32.932;-117.130;2023-02-22T01:40:05;5.53;;;1.10;;
60896;SDS011;46749;32.932;-117.130;2023-02-22T01:42:33;6.97;;;1.00;;
60896;SDS011;46749;32.932;-117.130;2023-02-22T01:47:57;5.72;;;1.58;;
60896;SDS011;46749;32.932;-117.130;2023-02-22T01:50:49;3.50;;;1.00;;
60896;SDS011;46749;32.932;-117.130;2023-02-22T01:55:58;5.97;;;1.30;;
60896;SDS011;46749;32.932;-117.130;2023-02-22T01:58:26;3.92;;;1.08;;
60896;SDS011;46749;32.932;-117.130;2023-02-22T02:00:55;5.07;;;1.15;;
60896;SDS011;46749;32.932;-117.130;2023-02-22T02:03:24;6.50;;;1.38;;
60896;SDS011;46749;32.932;-117.130;2023-02-22T02:05:56;7.55;;;1.50;;
60896;SDS011;46749;32.932;-117.130;2023-02-22T02:08:35;6.18;;;1.20;;
60896;SDS011;46749;32.932;-117.130;2023-02-22T02:11:04;3.92;;;1.20;;
60896;SDS011;46749;32.932;-117.130;2023-02-22T02:13:32;3.75;;;0.88;;
60896;SDS011;46749;32.932;-117.130;2023-02-22T02:15:59;6.30;;;1.00;;
60896;SDS011;46749;32.932;-117.130;2023-02-22T02:18:25;4.53;;;0.98;;
60896;SDS011;46749;32.932;-117.130;2023-02-22T02:21:05;5.78;;;1.00;;
60896;SDS011;46749;32.932;-117.130;2023-02-22T02:24:27;4.07;;;1.13;;
60896;SDS011;46749;32.932;-117.130;2023-02-22T02:27:18;6.70;;;1.25;;
60896;SDS011;46749;32.932;-117.130;2023-02-22T02:38:10;2.17;;;0.80;;
60896;SDS011;46749;32.932;-117.130;2023-02-22T02:41:14;2.83;;;0.77;;
60896;SDS011;46749;32.932;-117.130;2023-02-22T02:43:58;2.92;;;1.02;;
60896;SDS011;46749;32.932;-117.130;2023-02-22T02:49:45;3.47;;;1.10;;
60896;SDS011;46749;32.932;-117.130;2023-02-22T02:52:13;3.10;;;0.80;;
60896;SDS011;46749;32.932;-117.130;2023-02-22T02:54:41;3.13;;;0.90;;
60896;SDS011;46749;32.932;-117.130;2023-02-22T02:57:09;4.88;;;0.70;;
60896;SDS011;46749;32.932;-117.130;2023-02-22T02:59:36;2.60;;;0.98;;
60896;SDS011;46749;32.932;-117.130;2023-02-22T03:10:41;4.22;;;0.70;;
60896;SDS011;46749;32.932;-117.130;2023-02-22T03:13:18;4.25;;;0.93;;
60896;SDS011;46749;32.932;-117.130;2023-02-22T03:18:49;3.17;;;0.75;;
60896;SDS011;46749;32.932;-117.130;2023-02-22T03:26:50;6.05;;;1.05;;
60896;SDS011;46749;32.932;-117.130;2023-02-22T03:29:22;3.20;;;0.75;;
60896;SDS011;46749;32.932;-117.130;2023-02-22T03:31:54;4.20;;;0.93;;
60896;SDS011;46749;32.932;-117.130;2023-02-22T03:34:30;3.13;;;0.70;;
60896;SDS011;46749;32.932;-117.130;2023-02-22T03:37:13;3.60;;;1.00;;
60896;SDS011;46749;32.932;-117.130;2023-02-22T03:39:42;2.92;;;0.77;;
60896;SDS011;46749;32.932;-117.130;2023-02-22T03:42:15;3.08;;;0.80;;
60896;SDS011;46749;32.932;-117.130;2023-02-22T03:44:45;3.67;;;0.55;;
60896;SDS011;46749;32.932;-117.130;2023-02-22T03:47:15;3.47;;;0.60;;
60896;SDS011;46749;32.932;-117.130;2023-02-22T03:49:51;0.93;;;0.47;;
60896;SDS011;46749;32.932;-117.130;2023-02-22T03:52:32;4.03;;;0.52;;
60896;SDS011;46749;32.932;-117.130;2023-02-22T03:54:59;1.27;;;0.43;;
60896;SDS011;46749;32.932;-117.130;2023-02-22T03:57:34;2.03;;;0.50;;
60896;SDS011;46749;32.932;-117.130;2023-02-22T04:00:22;6.00;;;0.73;;
60896;SDS011;46749;32.932;-117.130;2023-02-22T04:05:16;2.28;;;0.60;;
60896;SDS011;46749;32.932;-117.130;2023-02-22T04:07:42;1.98;;;0.47;;
60896;SDS011;46749;32.932;-117.130;2023-02-22T04:10:09;2.38;;;0.60;;
60896;SDS011;46749;32.932;-117.130;2023-02-22T04:12:37;1.88;;;0.60;;
60896;SDS011;46749;32.932;-117.130;2023-02-22T04:15:03;1.90;;;0.50;;
60896;SDS011;46749;32.932;-117.130;2023-02-22T04:17:32;1.73;;;0.40;;
60896;SDS011;46749;32.932;-117.130;2023-02-22T04:19:58;1.88;;;0.50;;
60896;SDS011;46749;32.932;-117.130;2023-02-22T04:22:24;0.90;;;0.30;;
60896;SDS011;46749;32.932;-117.130;2023-02-22T04:24:50;2.25;;;0.40;;
60896;SDS011;46749;32.932;-117.130;2023-02-22T04:27:17;2.63;;;0.40;;
60896;SDS011;46749;32.932;-117.130;2023-02-22T04:29:44;0.90;;;0.40;;
60896;SDS011;46749;32.932;-117.130;2023-02-22T04:32:10;0.63;;;0.50;;
60896;SDS011;46749;32.932;-117.130;2023-02-22T04:34:36;1.23;;;0.40;;
60896;SDS011;46749;32.932;-117.130;2023-02-22T04:37:02;1.08;;;0.57;;
60896;SDS011;46749;32.932;-117.130;2023-02-22T04:39:28;1.20;;;0.60;;
60896;SDS011;46749;32.932;-117.130;2023-02-22T04:41:55;1.05;;;0.38;;
60896;SDS011;46749;32.932;-117.130;2023-02-22T04:44:21;1.17;;;0.50;;
60896;SDS011;46749;32.932;-117.130;2023-02-22T04:46:47;2.70;;;0.38;;
60896;SDS011;46749;32.932;-117.130;2023-02-22T04:49:13;1.42;;;0.60;;
60896;SDS011;46749;32.932;-117.130;2023-02-22T04:51:40;0.75;;;0.50;;
60896;SDS011;46749;32.932;-117.130;2023-02-22T04:54:06;1.17;;;0.50;;
60896;SDS011;46749;32.932;-117.130;2023-02-22T04:56:33;2.65;;;0.70;;
60896;SDS011;46749;32.932;-117.130;2023-02-22T04:58:59;2.30;;;0.70;;
60896;SDS011;46749;32.932;-117.130;2023-02-22T05:01:29;1.30;;;0.50;;
60896;SDS011;46749;32.932;-117.130;2023-02-22T05:03:58;1.73;;;0.55;;
60896;SDS011;46749;32.932;-117.130;2023-02-22T05:06:24;1.15;;;0.60;;
60896;SDS011;46749;32.932;-117.130;2023-02-22T05:08:50;0.85;;;0.50;;
60896;SDS011;46749;32.932;-117.130;2023-02-22T05:11:17;1.83;;;0.65;;
60896;SDS011;46749;32.932;-117.130;2023-02-22T05:13:43;1.98;;;0.70;;
60896;SDS011;46749;32.932;-117.130;2023-02-22T05:16:09;1.00;;;0.55;;
60896;SDS011;46749;32.932;-117.130;2023-02-22T05:18:36;3.97;;;0.88;;
60896;SDS011;46749;32.932;-117.130;2023-02-22T05:21:02;1.63;;;0.60;;
60896;SDS011;46749;32.932;-117.130;2023-02-22T05:23:29;4.03;;;0.60;;
60896;SDS011;46749;32.932;-117.130;2023-02-22T05:25:55;2.78;;;0.70;;
60896;SDS011;46749;32.932;-117.130;2023-02-22T05:28:21;3.33;;;0.60;;
60896;SDS011;46749;32.932;-117.130;2023-02-22T05:30:47;3.40;;;0.73;;
60896;SDS011;46749;32.932;-117.130;2023-02-22T05:33:13;2.40;;;0.98;;
60896;SDS011;46749;32.932;-117.130;2023-02-22T05:35:40;1.58;;;0.50;;
60896;SDS011;46749;32.932;-117.130;2023-02-22T05:38:06;2.20;;;0.75;;
60896;SDS011;46749;32.932;-117.130;2023-02-22T05:40:34;1.70;;;0.80;;
60896;SDS011;46749;32.932;-117.130;2023-02-22T05:43:00;5.45;;;1.35;;
60896;SDS011;46749;32.932;-117.130;2023-02-22T05:45:27;4.68;;;0.90;;
60896;SDS011;46749;32.932;-117.130;2023-02-22T05:47:54;3.00;;;0.80;;
60896;SDS011;46749;32.932;-117.130;2023-02-22T05:50:21;1.08;;;0.50;;
60896;SDS011;46749;32.932;-117.130;2023-02-22T05:52:48;2.38;;;0.70;;
60896;SDS011;46749;32.932;-117.130;2023-02-22T05:55:16;3.45;;;0.73;;
60896;SDS011;46749;32.932;-117.130;2023-02-22T05:57:44;2.28;;;0.82;;
60896;SDS011;46749;32.932;-117.130;2023-02-22T06:00:13;3.70;;;1.15;;
60896;SDS011;46749;32.932;-117.130;2023-02-22T06:02:44;2.67;;;1.02;;
60896;SDS011;46749;32.932;-117.130;2023-02-22T06:05:11;2.78;;;0.80;;
60896;SDS011;46749;32.932;-117.130;2023-02-22T06:07:38;4.10;;;0.80;;
60896;SDS011;46749;32.932;-117.130;2023-02-22T06:10:04;3.35;;;1.27;;
60896;SDS011;46749;32.932;-117.130;2023-02-22T06:12:30;2.00;;;0.88;;
60896;SDS011;46749;32.932;-117.130;2023-02-22T06:14:56;3.63;;;0.90;;
60896;SDS011;46749;32.932;-117.130;2023-02-22T06:17:23;4.45;;;1.20;;
60896;SDS011;46749;32.932;-117.130;2023-02-22T06:19:49;3.40;;;0.75;;
60896;SDS011;46749;32.932;-117.130;2023-02-22T06:22:16;2.63;;;0.70;;
60896;SDS011;46749;32.932;-117.130;2023-02-22T06:24:44;2.38;;;0.90;;
60896;SDS011;46749;32.932;-117.130;2023-02-22T06:27:10;3.00;;;0.90;;
60896;SDS011;46749;32.932;-117.130;2023-02-22T06:29:36;3.33;;;1.15;;
60896;SDS011;46749;32.932;-117.130;2023-02-22T06:32:03;2.65;;;0.85;;
60896;SDS011;46749;32.932;-117.130;2023-02-22T06:34:29;2.35;;;1.00;;
60896;SDS011;46749;32.932;-117.130;2023-02-22T06:36:55;2.55;;;0.85;;
60896;SDS011;46749;32.932;-117.130;2023-02-22T06:39:21;3.63;;;0.88;;
60896;SDS011;46749;32.932;-117.130;2023-02-22T06:41:49;2.50;;;1.02;;
60896;SDS011;46749;32.932;-117.130;2023-02-22T06:44:16;2.83;;;0.80;;
60896;SDS011;46749;32.932;-117.130;2023-02-22T06:46:46;7.13;;;1.10;;
60896;SDS011;46749;32.932;-117.130;2023-02-22T06:49:15;3.65;;;0.90;;
60896;SDS011;46749;32.932;-117.130;2023-02-22T06:51:42;2.83;;;1.15;;
60896;SDS011;46749;32.932;-117.130;2023-02-22T06:54:08;3.47;;;0.95;;
60896;SDS011;46749;32.932;-117.130;2023-02-22T06:56:34;3.50;;;1.10;;
60896;SDS011;46749;32.932;-117.130;2023-02-22T06:59:00;3.00;;;1.00;;
60896;SDS011;46749;32.932;-117.130;2023-02-22T07:01:27;4.07;;;0.90;;
60896;SDS011;46749;32.932;-117.130;2023-02-22T07:03:53;3.78;;;0.98;;
60896;SDS011;46749;32.932;-117.130;2023-02-22T07:06:20;3.03;;;1.08;;
60896;SDS011;46749;32.932;-117.130;2023-02-22T07:08:46;4.20;;;0.95;;
60896;SDS011;46749;32.932;-117.130;2023-02-22T07:11:14;7.38;;;1.08;;
60896;SDS011;46749;32.932;-117.130;2023-02-22T07:13:41;4.78;;;1.42;;
60896;SDS011;46749;32.932;-117.130;2023-02-22T07:16:07;4.18;;;1.00;;
60896;SDS011;46749;32.932;-117.130;2023-02-22T07:18:33;4.93;;;1.10;;
60896;SDS011;46749;32.932;-117.130;2023-02-22T07:21:00;5.20;;;1.00;;
60896;SDS011;46749;32.932;-117.130;2023-02-22T07:23:26;2.85;;;1.00;;
60896;SDS011;46749;32.932;-117.130;2023-02-22T07:25:52;2.70;;;0.88;;
60896;SDS011;46749;32.932;-117.130;2023-02-22T07:28:18;3.67;;;0.80;;
60896;SDS011;46749;32.932;-117.130;2023-02-22T07:30:44;2.75;;;0.85;;
60896;SDS011;46749;32.932;-117.130;2023-02-22T07:33:11;3.20;;;0.90;;
60896;SDS011;46749;32.932;-117.130;2023-02-22T07:35:41;3.65;;;1.02;;
60896;SDS011;46749;32.932;-117.130;2023-02-22T07:38:12;3.05;;;1.23;;
60896;SDS011;46749;32.932;-117.130;2023-02-22T07:40:40;4.07;;;1.15;;
60896;SDS011;46749;32.932;-117.130;2023-02-22T07:43:20;4.07;;;1.00;;
60896;SDS011;46749;32.932;-117.130;2023-02-22T07:45:49;3.88;;;0.80;;
60896;SDS011;46749;32.932;-117.130;2023-02-22T07:48:17;1.80;;;0.85;;
60896;SDS011;46749;32.932;-117.130;2023-02-22T07:50:44;2.63;;;0.90;;
60896;SDS011;46749;32.932;-117.130;2023-02-22T07:53:12;3.15;;;1.00;;
60896;SDS011;46749;32.932;-117.130;2023-02-22T07:55:42;2.83;;;0.85;;
60896;SDS011;46749;32.932;-117.130;2023-02-22T07:58:11;2.05;;;1.00;;
60896;SDS011;46749;32.932;-117.130;2023-02-22T08:00:41;3.38;;;0.80;;
60896;SDS011;46749;32.932;-117.130;2023-02-22T08:03:09;3.38;;;0.90;;
60896;SDS011;46749;32.932;-117.130;2023-02-22T08:05:39;2.15;;;1.30;;
60896;SDS011;46749;32.932;-117.130;2023-02-22T08:08:07;2.28;;;0.70;;
60896;SDS011;46749;32.932;-117.130;2023-02-22T08:10:33;3.20;;;0.90;;
60896;SDS011;46749;32.932;-117.130;2023-02-22T08:13:00;2.33;;;0.70;;
60896;SDS011;46749;32.932;-117.130;2023-02-22T08:15:28;1.85;;;0.70;;
60896;SDS011;46749;32.932;-117.130;2023-02-22T08:17:57;3.13;;;0.80;;
60896;SDS011;46749;32.932;-117.130;2023-02-22T08:20:25;1.45;;;0.52;;
60896;SDS011;46749;32.932;-117.130;2023-02-22T08:22:53;3.33;;;0.60;;
60896;SDS011;46749;32.932;-117.130;2023-02-22T08:25:21;6.13;;;1.23;;
60896;SDS011;46749;32.932;-117.130;2023-02-22T08:27:50;2.20;;;0.65;;
60896;SDS011;46749;32.932;-117.130;2023-02-22T08:30:18;2.05;;;0.70;;
60896;SDS011;46749;32.932;-117.130;2023-02-22T08:32:46;2.38;;;0.60;;
60896;SDS011;46749;32.932;-117.130;2023-02-22T08:35:14;2.38;;;0.73;;
60896;SDS011;46749;32.932;-117.130;2023-02-22T08:37:42;2.05;;;0.75;;
60896;SDS011;46749;32.932;-117.130;2023-02-22T08:40:12;2.92;;;0.80;;
60896;SDS011;46749;32.932;-117.130;2023-02-22T08:42:41;4.60;;;0.60;;
60896;SDS011;46749;32.932;-117.130;2023-02-22T08:45:08;3.55;;;0.65;;
60896;SDS011;46749;32.932;-117.130;2023-02-22T08:47:35;3.33;;;0.80;;
60896;SDS011;46749;32.932;-117.130;2023-02-22T08:50:01;1.85;;;0.60;;
60896;SDS011;46749;32.932;-117.130;2023-02-22T08:52:28;2.17;;;0.60;;
60896;SDS011;46749;32.932;-117.130;2023-02-22T08:54:54;2.00;;;0.60;;
60896;SDS011;46749;32.932;-117.130;2023-02-22T08:57:21;2.22;;;0.60;;
60896;SDS011;46749;32.932;-117.130;2023-02-22T08:59:47;2.00;;;0.60;;
60896;SDS011;46749;32.932;-117.130;2023-02-22T09:02:14;1.75;;;0.40;;
60896;SDS011;46749;32.932;-117.130;2023-02-22T09:04:42;2.42;;;0.70;;
60896;SDS011;46749;32.932;-117.130;2023-02-22T09:07:09;1.25;;;0.52;;
60896;SDS011;46749;32.932;-117.130;2023-02-22T09:09:35;2.55;;;0.60;;
60896;SDS011;46749;32.932;-117.130;2023-02-22T09:12:02;3.58;;;0.55;;
60896;SDS011;46749;32.932;-117.130;2023-02-22T09:14:29;2.15;;;0.70;;
60896;SDS011;46749;32.932;-117.130;2023-02-22T09:16:55;1.10;;;0.50;;
60896;SDS011;46749;32.932;-117.130;2023-02-22T09:19:21;3.42;;;0.60;;
60896;SDS011;46749;32.932;-117.130;2023-02-22T09:21:51;3.30;;;0.57;;
60896;SDS011;46749;32.932;-117.130;2023-02-22T09:24:22;4.50;;;1.08;;
60896;SDS011;46749;32.932;-117.130;2023-02-22T09:26:49;1.52;;;0.77;;
60896;SDS011;46749;32.932;-117.130;2023-02-22T09:29:19;1.95;;;0.60;;
60896;SDS011;46749;32.932;-117.130;2023-02-22T09:31:50;2.80;;;0.60;;
60896;SDS011;46749;32.932;-117.130;2023-02-22T09:34:19;2.95;;;0.80;;
60896;SDS011;46749;32.932;-117.130;2023-02-22T09:36:47;1.67;;;0.60;;
60896;SDS011;46749;32.932;-117.130;2023-02-22T09:39:15;1.00;;;0.40;;
60896;SDS011;46749;32.932;-117.130;2023-02-22T09:46:56;1.48;;;0.60;;
60896;SDS011;46749;32.932;-117.130;2023-02-22T09:52:23;2.28;;;0.70;;
60896;SDS011;46749;32.932;-117.130;2023-02-22T09:55:01;3.90;;;0.73;;
60896;SDS011;46749;32.932;-117.130;2023-02-22T09:57:35;2.72;;;0.60;;
60896;SDS011;46749;32.932;-117.130;2023-02-22T10:02:51;2.38;;;0.70;;
60896;SDS011;46749;32.932;-117.130;2023-02-22T10:05:41;2.05;;;0.60;;
60896;SDS011;46749;32.932;-117.130;2023-02-22T10:08:14;1.63;;;0.50;;
60896;SDS011;46749;32.932;-117.130;2023-02-22T10:10:44;3.05;;;0.60;;
60896;SDS011;46749;32.932;-117.130;2023-02-22T10:16:28;2.00;;;0.50;;
60896;SDS011;46749;32.932;-117.130;2023-02-22T10:19:30;1.65;;;0.52;;
60896;SDS011;46749;32.932;-117.130;2023-02-22T10:25:02;2.85;;;0.35;;
60896;SDS011;46749;32.932;-117.130;2023-02-22T10:27:55;1.10;;;0.50;;
60896;SDS011;46749;32.932;-117.130;2023-02-22T10:30:48;2.47;;;0.57;;
60896;SDS011;46749;32.932;-117.130;2023-02-22T10:33:21;2.05;;;0.40;;
60896;SDS011;46749;32.932;-117.130;2023-02-22T10:35:52;3.00;;;0.50;;
60896;SDS011;46749;32.932;-117.130;2023-02-22T10:40:55;0.85;;;0.40;;
60896;SDS011;46749;32.932;-117.130;2023-02-22T10:43:38;0.82;;;0.30;;
60896;SDS011;46749;32.932;-117.130;2023-02-22T10:46:07;2.38;;;0.60;;
60896;SDS011;46749;32.932;-117.130;2023-02-22T10:48:39;1.73;;;0.50;;
60896;SDS011;46749;32.932;-117.130;2023-02-22T10:51:08;1.50;;;0.50;;
60896;SDS011;46749;32.932;-117.130;2023-02-22T10:53:36;1.85;;;0.50;;
60896;SDS011;46749;32.932;-117.130;2023-02-22T10:56:11;1.02;;;0.45;;
60896;SDS011;46749;32.932;-117.130;2023-02-22T10:58:55;1.52;;;0.60;;
60896;SDS011;46749;32.932;-117.130;2023-02-22T11:06:31;1.25;;;0.40;;
60896;SDS011;46749;32.932;-117.130;2023-02-22T11:11:34;0.85;;;0.45;;
60896;SDS011;46749;32.932;-117.130;2023-02-22T11:14:01;0.50;;;0.30;;
60896;SDS011;46749;32.932;-117.130;2023-02-22T11:16:52;0.80;;;0.40;;
60896;SDS011;46749;32.932;-117.130;2023-02-22T11:19:20;1.13;;;0.40;;
60896;SDS011;46749;32.932;-117.130;2023-02-22T11:21:50;2.47;;;0.68;;
60896;SDS011;46749;32.932;-117.130;2023-02-22T11:24:20;1.30;;;0.52;;
60896;SDS011;46749;32.932;-117.130;2023-02-22T11:26:50;1.63;;;0.43;;
60896;SDS011;46749;32.932;-117.130;2023-02-22T11:29:28;1.80;;;0.38;;
60896;SDS011;46749;32.932;-117.130;2023-02-22T11:32:01;2.58;;;0.63;;
60896;SDS011;46749;32.932;-117.130;2023-02-22T11:34:38;1.15;;;0.43;;
60896;SDS011;46749;32.932;-117.130;2023-02-22T11:40:15;1.25;;;0.40;;
60896;SDS011;46749;32.932;-117.130;2023-02-22T11:42:44;1.17;;;0.47;;
60896;SDS011;46749;32.932;-117.130;2023-02-22T11:45:13;1.52;;;0.50;;
60896;SDS011;46749;32.932;-117.130;2023-02-22T11:53:23;1.35;;;0.60;;
60896;SDS011;46749;32.932;-117.130;2023-02-22T12:02:15;1.55;;;0.65;;
60896;SDS011;46749;32.932;-117.130;2023-02-22T12:18:20;1.60;;;0.40;;
60896;SDS011;46749;32.932;-117.130;2023-02-22T12:21:01;0.70;;;0.50;;
60896;SDS011;46749;32.932;-117.130;2023-02-22T12:23:42;1.25;;;0.40;;
60896;SDS011;46749;32.932;-117.130;2023-02-22T12:26:27;1.65;;;0.40;;
60896;SDS011;46749;32.932;-117.130;2023-02-22T12:28:59;1.52;;;0.40;;
60896;SDS011;46749;32.932;-117.130;2023-02-22T12:31:43;1.75;;;0.50;;
60896;SDS011;46749;32.932;-117.130;2023-02-22T12:34:40;1.23;;;0.52;;
60896;SDS011;46749;32.932;-117.130;2023-02-22T12:37:25;1.63;;;0.50;;
60896;SDS011;46749;32.932;-117.130;2023-02-22T12:40:06;2.03;;;0.50;;
60896;SDS011;46749;32.932;-117.130;2023-02-22T12:45:35;1.63;;;0.40;;
60896;SDS011;46749;32.932;-117.130;2023-02-22T13:02:16;2.13;;;0.40;;
60896;SDS011;46749;32.932;-117.130;2023-02-22T13:04:55;0.50;;;0.30;;
60896;SDS011;46749;32.932;-117.130;2023-02-22T13:12:35;1.05;;;0.40;;
60896;SDS011;46749;32.932;-117.130;2023-02-22T13:21:00;1.38;;;0.40;;
60896;SDS011;46749;32.932;-117.130;2023-02-22T13:35:15;1.52;;;0.45;;
60896;SDS011;46749;32.932;-117.130;2023-02-22T13:46:20;0.55;;;0.30;;
60896;SDS011;46749;32.932;-117.130;2023-02-22T13:51:59;0.70;;;0.40;;
60896;SDS011;46749;32.932;-117.130;2023-02-22T13:54:45;0.60;;;0.30;;
60896;SDS011;46749;32.932;-117.130;2023-02-22T13:57:27;0.35;;;0.30;;
60896;SDS011;46749;32.932;-117.130;2023-02-22T14:16:23;0.52;;;0.50;;
60896;SDS011;46749;32.932;-117.130;2023-02-22T14:24:47;0.32;;;0.30;;
60896;SDS011;46749;32.932;-117.130;2023-02-22T14:27:13;1.08;;;0.30;;
60896;SDS011;46749;32.932;-117.130;2023-02-22T14:29:55;0.90;;;0.30;;
60896;SDS011;46749;32.932;-117.130;2023-02-22T14:32:31;1.63;;;0.30;;
60896;SDS011;46749;32.932;-117.130;2023-02-22T14:35:05;1.73;;;0.32;;
60896;SDS011;46749;32.932;-117.130;2023-02-22T14:37:40;1.10;;;0.40;;
60896;SDS011;46749;32.932;-117.130;2023-02-22T14:45:32;1.00;;;0.30;;
60896;SDS011;46749;32.932;-117.130;2023-02-22T14:51:12;0.85;;;0.30;;
60896;SDS011;46749;32.932;-117.130;2023-02-22T14:56:20;0.30;;;0.30;;
60896;SDS011;46749;32.932;-117.130;2023-02-22T14:59:12;0.47;;;0.25;;
60896;SDS011;46749;32.932;-117.130;2023-02-22T15:01:45;1.30;;;0.30;;
60896;SDS011;46749;32.932;-117.130;2023-02-22T15:04:19;1.20;;;0.38;;
60896;SDS011;46749;32.932;-117.130;2023-02-22T15:06:51;1.42;;;0.40;;
60896;SDS011;46749;32.932;-117.130;2023-02-22T15:09:20;1.55;;;0.35;;
60896;SDS011;46749;32.932;-117.130;2023-02-22T15:12:11;0.35;;;0.30;;
60896;SDS011;46749;32.932;-117.130;2023-02-22T15:14:38;1.92;;;0.45;;
60896;SDS011;46749;32.932;-117.130;2023-02-22T15:17:26;1.48;;;0.47;;
60896;SDS011;46749;32.932;-117.130;2023-02-22T15:19:52;0.80;;;0.40;;
60896;SDS011;46749;32.932;-117.130;2023-02-22T15:22:23;0.35;;;0.30;;
60896;SDS011;46749;32.932;-117.130;2023-02-22T15:25:04;1.73;;;0.60;;
60896;SDS011;46749;32.932;-117.130;2023-02-22T15:27:33;0.30;;;0.30;;
60896;SDS011;46749;32.932;-117.130;2023-02-22T15:30:34;0.52;;;0.40;;
60896;SDS011;46749;32.932;-117.130;2023-02-22T15:33:08;1.15;;;0.68;;
60896;SDS011;46749;32.932;-117.130;2023-02-22T15:35:54;1.23;;;0.40;;
60896;SDS011;46749;32.932;-117.130;2023-02-22T15:38:28;0.40;;;0.28;;
60896;SDS011;46749;32.932;-117.130;2023-02-22T15:40:59;1.25;;;0.40;;
60896;SDS011;46749;32.932;-117.130;2023-02-22T15:43:27;1.63;;;0.38;;
60896;SDS011;46749;32.932;-117.130;2023-02-22T15:45:53;0.95;;;0.30;;
60896;SDS011;46749;32.932;-117.130;2023-02-22T15:48:20;0.80;;;0.30;;
60896;SDS011;46749;32.932;-117.130;2023-02-22T15:53:55;0.60;;;0.40;;
60896;SDS011;46749;32.932;-117.130;2023-02-22T15:56:27;1.10;;;0.40;;
60896;SDS011;46749;32.932;-117.130;2023-02-22T15:59:00;1.15;;;0.50;;
60896;SDS011;46749;32.932;-117.130;2023-02-22T16:01:37;1.08;;;0.30;;
60896;SDS011;46749;32.932;-117.130;2023-02-22T16:04:06;0.32;;;0.30;;
60896;SDS011;46749;32.932;-117.130;2023-02-22T16:06:40;1.40;;;0.38;;
60896;SDS011;46749;32.932;-117.130;2023-02-22T16:09:14;0.65;;;0.40;;
60896;SDS011;46749;32.932;-117.130;2023-02-22T16:11:47;0.70;;;0.30;;
60896;SDS011;46749;32.932;-117.130;2023-02-22T16:16:49;0.65;;;0.38;;
60896;SDS011;46749;32.932;-117.130;2023-02-22T16:22:37;0.55;;;0.45;;
60896;SDS011;46749;32.932;-117.130;2023-02-22T16:27:43;0.85;;;0.32;;
60896;SDS011;46749;32.932;-117.130;2023-02-22T16:32:58;1.07;;;0.27;;
60896;SDS011;46749;32.932;-117.130;2023-02-22T16:35:29;0.35;;;0.20;;
60896;SDS011;46749;32.932;-117.130;2023-02-22T16:38:03;0.60;;;0.30;;
60896;SDS011;46749;32.932;-117.130;2023-02-22T16:43:06;0.75;;;0.32;;
60896;SDS011;46749;32.932;-117.130;2023-02-22T16:45:36;1.30;;;0.30;;
60896;SDS011;46749;32.932;-117.130;2023-02-22T16:48:10;0.73;;;0.40;;
60896;SDS011;46749;32.932;-117.130;2023-02-22T16:50:48;1.60;;;0.30;;
60896;SDS011;46749;32.932;-117.130;2023-02-22T16:53:16;1.05;;;0.50;;
60896;SDS011;46749;32.932;-117.130;2023-02-22T16:55:48;0.57;;;0.30;;
60896;SDS011;46749;32.932;-117.130;2023-02-22T16:58:21;1.17;;;0.40;;
60896;SDS011;46749;32.932;-117.130;2023-02-22T17:00:55;0.68;;;0.40;;
60896;SDS011;46749;32.932;-117.130;2023-02-22T17:03:22;1.92;;;0.30;;
60896;SDS011;46749;32.932;-117.130;2023-02-22T17:05:49;0.80;;;0.30;;
60896;SDS011;46749;32.932;-117.130;2023-02-22T17:08:17;0.30;;;0.30;;
60896;SDS011;46749;32.932;-117.130;2023-02-22T17:10:43;1.05;;;0.30;;
60896;SDS011;46749;32.932;-117.130;2023-02-22T17:13:10;1.80;;;0.40;;
60896;SDS011;46749;32.932;-117.130;2023-02-22T17:15:37;2.67;;;0.57;;
60896;SDS011;46749;32.932;-117.130;2023-02-22T17:18:10;1.23;;;0.30;;
60896;SDS011;46749;32.932;-117.130;2023-02-22T17:20:40;1.35;;;0.45;;
60896;SDS011;46749;32.932;-117.130;2023-02-22T17:23:09;0.57;;;0.40;;
60896;SDS011;46749;32.932;-117.130;2023-02-22T17:25:48;2.08;;;0.60;;
60896;SDS011;46749;32.932;-117.130;2023-02-22T17:28:23;0.45;;;0.40;;
60896;SDS011;46749;32.932;-117.130;2023-02-22T17:30:51;2.15;;;0.40;;
60896;SDS011;46749;32.932;-117.130;2023-02-22T17:33:19;0.98;;;0.40;;
60896;SDS011;46749;32.932;-117.130;2023-02-22T17:35:51;1.05;;;0.40;;
60896;SDS011;46749;32.932;-117.130;2023-02-22T17:38:18;0.52;;;0.30;;
60896;SDS011;46749;32.932;-117.130;2023-02-22T17:40:45;0.70;;;0.30;;
60896;SDS011;46749;32.932;-117.130;2023-02-22T17:43:18;1.15;;;0.40;;